sensor_id;sensor_type;location;lat;lon;timestamp;P1;durP1;ratioP1;P2;durP2;ratioP2
4278;SDS011;2153;47.744;10.580;2022-08-04T00:01:21;16.20;;;5.00;;
4278;SDS011;2153;47.744;10.580;2022-08-04T00:03:59;18.50;;;5.30;;
4278;SDS011;2153;47.744;10.580;2022-08-04T00:06:33;14.53;;;3.97;;
4278;SDS011;2153;47.744;10.580;2022-08-04T00:09:16;15.00;;;4.37;;
4278;SDS011;2153;47.744;10.580;2022-08-04T00:11:50;17.80;;;5.47;;
4278;SDS011;2153;47.744;10.580;2022-08-04T00:14:20;16.40;;;5.10;;
4278;SDS011;2153;47.744;10.580;2022-08-04T00:16:48;19.13;;;5.50;;
4278;SDS011;2153;47.744;10.580;2022-08-04T00:19:20;17.03;;;5.13;;
4278;SDS011;2153;47.744;10.580;2022-08-04T00:21:55;14.33;;;4.07;;
4278;SDS011;2153;47.744;10.580;2022-08-04T00:24:25;15.27;;;4.43;;
4278;SDS011;2153;47.744;10.580;2022-08-04T00:26:54;15.30;;;4.70;;
4278;SDS011;2153;47.744;10.580;2022-08-04T00:29:21;17.37;;;4.47;;
4278;SDS011;2153;47.744;10.580;2022-08-04T00:31:48;15.83;;;4.30;;
4278;SDS011;2153;47.744;10.580;2022-08-04T00:34:15;16.70;;;4.70;;
4278;SDS011;2153;47.744;10.580;2022-08-04T00:36:44;14.80;;;4.60;;
4278;SDS011;2153;47.744;10.580;2022-08-04T00:39:11;17.83;;;4.50;;
4278;SDS011;2153;47.744;10.580;2022-08-04T00:41:41;19.03;;;4.70;;
4278;SDS011;2153;47.744;10.580;2022-08-04T00:44:23;15.50;;;4.90;;
4278;SDS011;2153;47.744;10.580;2022-08-04T00:47:08;15.70;;;4.70;;
4278;SDS011;2153;47.744;10.580;2022-08-04T00:49:54;18.30;;;4.60;;
4278;SDS011;2153;47.744;10.580;2022-08-04T00:52:35;17.83;;;5.40;;
4278;SDS011;2153;47.744;10.580;2022-08-04T00:55:16;18.93;;;4.03;;
4278;SDS011;2153;47.744;10.580;2022-08-04T00:57:58;14.87;;;4.43;;
4278;SDS011;2153;47.744;10.580;2022-08-04T01:00:38;14.90;;;4.43;;
4278;SDS011;2153;47.744;10.580;2022-08-04T01:03:13;16.40;;;4.33;;
4278;SDS011;2153;47.744;10.580;2022-08-04T01:05:46;16.20;;;4.10;;
4278;SDS011;2153;47.744;10.580;2022-08-04T01:08:27;17.17;;;4.23;;
4278;SDS011;2153;47.744;10.580;2022-08-04T01:11:09;14.90;;;4.23;;
4278;SDS011;2153;47.744;10.580;2022-08-04T01:13:50;15.40;;;4.70;;
4278;SDS011;2153;47.744;10.580;2022-08-04T01:16:25;15.30;;;4.73;;
4278;SDS011;2153;47.744;10.580;2022-08-04T01:18:54;18.23;;;4.83;;
4278;SDS011;2153;47.744;10.580;2022-08-04T01:24:47;17.70;;;5.00;;
4278;SDS011;2153;47.744;10.580;2022-08-04T01:27:25;14.93;;;4.17;;
4278;SDS011;2153;47.744;10.580;2022-08-04T01:29:59;18.77;;;4.40;;
4278;SDS011;2153;47.744;10.580;2022-08-04T01:32:30;15.30;;;4.50;;
4278;SDS011;2153;47.744;10.580;2022-08-04T01:35:00;15.57;;;4.37;;
4278;SDS011;2153;47.744;10.580;2022-08-04T01:37:36;20.33;;;5.13;;
4278;SDS011;2153;47.744;10.580;2022-08-04T01:40:14;15.93;;;5.10;;
4278;SDS011;2153;47.744;10.580;2022-08-04T01:42:41;16.50;;;4.70;;
4278;SDS011;2153;47.744;10.580;2022-08-04T01:45:11;18.23;;;5.00;;
4278;SDS011;2153;47.744;10.580;2022-08-04T01:47:41;15.83;;;5.07;;
4278;SDS011;2153;47.744;10.580;2022-08-04T01:50:09;17.33;;;4.40;;
4278;SDS011;2153;47.744;10.580;2022-08-04T01:52:38;18.00;;;4.70;;
4278;SDS011;2153;47.744;10.580;2022-08-04T01:55:06;16.77;;;4.73;;
4278;SDS011;2153;47.744;10.580;2022-08-04T01:57:36;23.33;;;4.50;;
4278;SDS011;2153;47.744;10.580;2022-08-04T02:00:07;15.40;;;4.20;;
4278;SDS011;2153;47.744;10.580;2022-08-04T02:02:36;16.23;;;5.03;;
4278;SDS011;2153;47.744;10.580;2022-08-04T02:05:03;19.93;;;5.00;;
4278;SDS011;2153;47.744;10.580;2022-08-04T02:07:34;15.23;;;4.70;;
4278;SDS011;2153;47.744;10.580;2022-08-04T02:10:12;15.97;;;4.83;;
4278;SDS011;2153;47.744;10.580;2022-08-04T02:12:52;15.50;;;4.67;;
4278;SDS011;2153;47.744;10.580;2022-08-04T02:15:27;19.87;;;6.50;;
4278;SDS011;2153;47.744;10.580;2022-08-04T02:18:01;16.47;;;5.07;;
4278;SDS011;2153;47.744;10.580;2022-08-04T02:20:31;15.50;;;4.40;;
4278;SDS011;2153;47.744;10.580;2022-08-04T02:23:03;14.70;;;4.50;;
4278;SDS011;2153;47.744;10.580;2022-08-04T02:25:31;15.30;;;4.77;;
4278;SDS011;2153;47.744;10.580;2022-08-04T02:28:15;16.47;;;4.97;;
4278;SDS011;2153;47.744;10.580;2022-08-04T02:30:56;14.23;;;3.97;;
4278;SDS011;2153;47.744;10.580;2022-08-04T02:33:33;15.87;;;4.00;;
4278;SDS011;2153;47.744;10.580;2022-08-04T02:36:03;15.97;;;5.13;;
4278;SDS011;2153;47.744;10.580;2022-08-04T02:38:39;18.40;;;5.27;;
4278;SDS011;2153;47.744;10.580;2022-08-04T02:41:16;16.23;;;4.80;;
4278;SDS011;2153;47.744;10.580;2022-08-04T02:43:47;16.10;;;5.00;;
4278;SDS011;2153;47.744;10.580;2022-08-04T02:46:15;15.83;;;5.17;;
4278;SDS011;2153;47.744;10.580;2022-08-04T02:48:45;16.97;;;5.50;;
4278;SDS011;2153;47.744;10.580;2022-08-04T02:51:14;25.83;;;5.40;;
4278;SDS011;2153;47.744;10.580;2022-08-04T02:53:44;15.87;;;4.80;;
4278;SDS011;2153;47.744;10.580;2022-08-04T02:56:14;16.80;;;5.27;;
4278;SDS011;2153;47.744;10.580;2022-08-04T02:58:45;16.00;;;5.30;;
4278;SDS011;2153;47.744;10.580;2022-08-04T03:01:17;17.23;;;4.97;;
4278;SDS011;2153;47.744;10.580;2022-08-04T03:03:47;16.67;;;5.03;;
4278;SDS011;2153;47.744;10.580;2022-08-04T03:06:29;14.63;;;4.50;;
4278;SDS011;2153;47.744;10.580;2022-08-04T03:12:25;16.90;;;5.23;;
4278;SDS011;2153;47.744;10.580;2022-08-04T03:15:15;16.50;;;4.70;;
4278;SDS011;2153;47.744;10.580;2022-08-04T03:18:14;16.10;;;5.20;;
4278;SDS011;2153;47.744;10.580;2022-08-04T03:21:14;18.93;;;5.00;;
4278;SDS011;2153;47.744;10.580;2022-08-04T03:24:09;18.33;;;5.40;;
4278;SDS011;2153;47.744;10.580;2022-08-04T03:27:09;17.70;;;4.90;;
4278;SDS011;2153;47.744;10.580;2022-08-04T03:29:47;19.53;;;5.50;;
4278;SDS011;2153;47.744;10.580;2022-08-04T03:35:49;16.40;;;4.57;;
4278;SDS011;2153;47.744;10.580;2022-08-04T03:38:47;17.70;;;4.80;;
4278;SDS011;2153;47.744;10.580;2022-08-04T03:42:04;19.70;;;4.80;;
4278;SDS011;2153;47.744;10.580;2022-08-04T03:44:58;15.83;;;4.87;;
4278;SDS011;2153;47.744;10.580;2022-08-04T03:47:52;19.50;;;5.20;;
4278;SDS011;2153;47.744;10.580;2022-08-04T03:50:51;16.47;;;4.60;;
4278;SDS011;2153;47.744;10.580;2022-08-04T03:53:48;16.30;;;4.87;;
4278;SDS011;2153;47.744;10.580;2022-08-04T03:59:33;16.80;;;5.40;;
4278;SDS011;2153;47.744;10.580;2022-08-04T04:02:14;17.30;;;5.00;;
4278;SDS011;2153;47.744;10.580;2022-08-04T04:05:19;16.47;;;5.13;;
4278;SDS011;2153;47.744;10.580;2022-08-04T04:08:13;17.33;;;6.03;;
4278;SDS011;2153;47.744;10.580;2022-08-04T04:11:15;16.87;;;4.90;;
4278;SDS011;2153;47.744;10.580;2022-08-04T04:14:00;15.30;;;4.70;;
4278;SDS011;2153;47.744;10.580;2022-08-04T04:16:37;16.63;;;4.80;;
4278;SDS011;2153;47.744;10.580;2022-08-04T04:19:28;16.33;;;5.37;;
4278;SDS011;2153;47.744;10.580;2022-08-04T04:22:08;18.27;;;5.00;;
4278;SDS011;2153;47.744;10.580;2022-08-04T04:24:53;15.93;;;5.00;;
4278;SDS011;2153;47.744;10.580;2022-08-04T04:27:36;17.93;;;5.53;;
4278;SDS011;2153;47.744;10.580;2022-08-04T04:30:11;16.17;;;5.00;;
4278;SDS011;2153;47.744;10.580;2022-08-04T04:32:53;18.77;;;5.10;;
4278;SDS011;2153;47.744;10.580;2022-08-04T04:35:40;18.87;;;6.70;;
4278;SDS011;2153;47.744;10.580;2022-08-04T04:38:25;21.40;;;5.10;;
4278;SDS011;2153;47.744;10.580;2022-08-04T04:41:21;35.07;;;6.60;;
4278;SDS011;2153;47.744;10.580;2022-08-04T04:44:06;19.40;;;5.97;;
4278;SDS011;2153;47.744;10.580;2022-08-04T04:46:55;17.77;;;5.60;;
4278;SDS011;2153;47.744;10.580;2022-08-04T04:49:32;16.07;;;5.60;;
4278;SDS011;2153;47.744;10.580;2022-08-04T04:52:07;16.03;;;5.20;;
4278;SDS011;2153;47.744;10.580;2022-08-04T04:54:39;18.63;;;5.80;;
4278;SDS011;2153;47.744;10.580;2022-08-04T04:57:16;17.20;;;4.37;;
4278;SDS011;2153;47.744;10.580;2022-08-04T04:59:48;15.20;;;4.60;;
4278;SDS011;2153;47.744;10.580;2022-08-04T05:02:25;15.57;;;5.00;;
4278;SDS011;2153;47.744;10.580;2022-08-04T05:05:14;17.60;;;5.70;;
4278;SDS011;2153;47.744;10.580;2022-08-04T05:07:54;19.40;;;5.63;;
4278;SDS011;2153;47.744;10.580;2022-08-04T05:10:38;17.10;;;5.57;;
4278;SDS011;2153;47.744;10.580;2022-08-04T05:13:20;18.60;;;4.93;;
4278;SDS011;2153;47.744;10.580;2022-08-04T05:16:01;17.97;;;5.30;;
4278;SDS011;2153;47.744;10.580;2022-08-04T05:18:31;16.60;;;5.23;;
4278;SDS011;2153;47.744;10.580;2022-08-04T05:21:07;21.13;;;5.47;;
4278;SDS011;2153;47.744;10.580;2022-08-04T05:23:50;19.83;;;6.20;;
4278;SDS011;2153;47.744;10.580;2022-08-04T05:26:23;15.60;;;5.23;;
4278;SDS011;2153;47.744;10.580;2022-08-04T05:28:56;15.33;;;4.50;;
4278;SDS011;2153;47.744;10.580;2022-08-04T05:31:27;23.60;;;4.97;;
4278;SDS011;2153;47.744;10.580;2022-08-04T05:34:03;19.60;;;4.27;;
4278;SDS011;2153;47.744;10.580;2022-08-04T05:36:33;17.30;;;4.63;;
4278;SDS011;2153;47.744;10.580;2022-08-04T05:39:05;16.00;;;5.50;;
4278;SDS011;2153;47.744;10.580;2022-08-04T05:41:37;15.40;;;5.00;;
4278;SDS011;2153;47.744;10.580;2022-08-04T05:44:06;15.50;;;4.80;;
4278;SDS011;2153;47.744;10.580;2022-08-04T05:46:34;14.13;;;4.30;;
4278;SDS011;2153;47.744;10.580;2022-08-04T05:49:02;15.87;;;4.67;;
4278;SDS011;2153;47.744;10.580;2022-08-04T05:51:29;16.53;;;5.10;;
4278;SDS011;2153;47.744;10.580;2022-08-04T05:53:57;14.47;;;4.47;;
4278;SDS011;2153;47.744;10.580;2022-08-04T05:56:25;16.03;;;5.00;;
4278;SDS011;2153;47.744;10.580;2022-08-04T05:58:53;18.83;;;4.10;;
4278;SDS011;2153;47.744;10.580;2022-08-04T06:01:21;16.17;;;4.80;;
4278;SDS011;2153;47.744;10.580;2022-08-04T06:03:51;16.97;;;4.57;;
4278;SDS011;2153;47.744;10.580;2022-08-04T06:06:20;15.20;;;4.57;;
4278;SDS011;2153;47.744;10.580;2022-08-04T06:08:48;19.07;;;4.27;;
4278;SDS011;2153;47.744;10.580;2022-08-04T06:11:15;15.90;;;3.50;;
4278;SDS011;2153;47.744;10.580;2022-08-04T06:13:47;16.40;;;4.30;;
4278;SDS011;2153;47.744;10.580;2022-08-04T06:16:18;16.87;;;4.20;;
4278;SDS011;2153;47.744;10.580;2022-08-04T06:18:48;16.23;;;4.07;;
4278;SDS011;2153;47.744;10.580;2022-08-04T06:21:20;16.03;;;3.63;;
4278;SDS011;2153;47.744;10.580;2022-08-04T06:23:48;13.47;;;3.63;;
4278;SDS011;2153;47.744;10.580;2022-08-04T06:26:16;14.40;;;3.87;;
4278;SDS011;2153;47.744;10.580;2022-08-04T06:28:45;14.43;;;4.33;;
4278;SDS011;2153;47.744;10.580;2022-08-04T06:31:13;13.17;;;3.43;;
4278;SDS011;2153;47.744;10.580;2022-08-04T06:33:56;17.70;;;3.97;;
4278;SDS011;2153;47.744;10.580;2022-08-04T06:36:26;15.47;;;4.20;;
4278;SDS011;2153;47.744;10.580;2022-08-04T06:38:55;14.90;;;3.63;;
4278;SDS011;2153;47.744;10.580;2022-08-04T06:41:22;20.07;;;3.10;;
4278;SDS011;2153;47.744;10.580;2022-08-04T06:43:50;15.40;;;3.40;;
4278;SDS011;2153;47.744;10.580;2022-08-04T06:46:18;22.80;;;3.50;;
4278;SDS011;2153;47.744;10.580;2022-08-04T06:48:45;13.43;;;3.27;;
4278;SDS011;2153;47.744;10.580;2022-08-04T06:51:13;13.70;;;3.43;;
4278;SDS011;2153;47.744;10.580;2022-08-04T06:53:42;13.57;;;3.13;;
4278;SDS011;2153;47.744;10.580;2022-08-04T06:56:08;13.37;;;3.20;;
4278;SDS011;2153;47.744;10.580;2022-08-04T06:58:36;12.97;;;3.67;;
4278;SDS011;2153;47.744;10.580;2022-08-04T07:01:04;12.87;;;3.40;;
4278;SDS011;2153;47.744;10.580;2022-08-04T07:03:32;13.43;;;3.03;;
4278;SDS011;2153;47.744;10.580;2022-08-04T07:05:59;14.60;;;3.60;;
4278;SDS011;2153;47.744;10.580;2022-08-04T07:08:27;13.20;;;4.10;;
4278;SDS011;2153;47.744;10.580;2022-08-04T07:10:56;18.20;;;3.10;;
4278;SDS011;2153;47.744;10.580;2022-08-04T07:13:23;12.23;;;3.00;;
4278;SDS011;2153;47.744;10.580;2022-08-04T07:15:52;11.73;;;2.87;;
4278;SDS011;2153;47.744;10.580;2022-08-04T07:18:20;14.67;;;3.50;;
4278;SDS011;2153;47.744;10.580;2022-08-04T07:20:47;21.60;;;3.50;;
4278;SDS011;2153;47.744;10.580;2022-08-04T07:23:15;13.03;;;3.30;;
4278;SDS011;2153;47.744;10.580;2022-08-04T07:25:51;13.70;;;3.23;;
4278;SDS011;2153;47.744;10.580;2022-08-04T07:28:20;13.43;;;3.20;;
4278;SDS011;2153;47.744;10.580;2022-08-04T07:30:47;12.80;;;3.50;;
4278;SDS011;2153;47.744;10.580;2022-08-04T07:33:14;12.10;;;3.13;;
4278;SDS011;2153;47.744;10.580;2022-08-04T07:35:42;13.57;;;3.63;;
4278;SDS011;2153;47.744;10.580;2022-08-04T07:38:10;15.67;;;2.97;;
4278;SDS011;2153;47.744;10.580;2022-08-04T07:40:37;11.13;;;2.70;;
4278;SDS011;2153;47.744;10.580;2022-08-04T07:43:05;11.53;;;3.10;;
4278;SDS011;2153;47.744;10.580;2022-08-04T07:45:33;11.77;;;3.13;;
4278;SDS011;2153;47.744;10.580;2022-08-04T07:48:00;11.00;;;2.90;;
4278;SDS011;2153;47.744;10.580;2022-08-04T07:50:29;11.63;;;3.03;;
4278;SDS011;2153;47.744;10.580;2022-08-04T07:52:57;11.93;;;3.17;;
4278;SDS011;2153;47.744;10.580;2022-08-04T07:55:24;13.07;;;3.03;;
4278;SDS011;2153;47.744;10.580;2022-08-04T07:57:53;12.80;;;2.77;;
4278;SDS011;2153;47.744;10.580;2022-08-04T08:00:20;10.87;;;2.70;;
4278;SDS011;2153;47.744;10.580;2022-08-04T08:02:49;12.17;;;2.40;;
4278;SDS011;2153;47.744;10.580;2022-08-04T08:05:18;11.33;;;2.90;;
4278;SDS011;2153;47.744;10.580;2022-08-04T08:07:45;12.15;;;2.50;;
4278;SDS011;2153;47.744;10.580;2022-08-04T08:10:12;11.03;;;2.33;;
4278;SDS011;2153;47.744;10.580;2022-08-04T08:12:39;11.90;;;2.40;;
4278;SDS011;2153;47.744;10.580;2022-08-04T08:15:07;11.30;;;2.80;;
4278;SDS011;2153;47.744;10.580;2022-08-04T08:17:36;11.93;;;2.93;;
4278;SDS011;2153;47.744;10.580;2022-08-04T08:20:07;12.70;;;3.00;;
4278;SDS011;2153;47.744;10.580;2022-08-04T08:22:35;11.47;;;2.87;;
4278;SDS011;2153;47.744;10.580;2022-08-04T08:25:02;28.70;;;2.93;;
4278;SDS011;2153;47.744;10.580;2022-08-04T08:27:30;10.97;;;2.67;;
4278;SDS011;2153;47.744;10.580;2022-08-04T08:29:57;10.60;;;2.43;;
4278;SDS011;2153;47.744;10.580;2022-08-04T08:32:24;10.87;;;2.40;;
4278;SDS011;2153;47.744;10.580;2022-08-04T08:34:52;11.50;;;2.27;;
4278;SDS011;2153;47.744;10.580;2022-08-04T08:37:22;11.27;;;2.27;;
4278;SDS011;2153;47.744;10.580;2022-08-04T08:39:57;11.13;;;2.40;;
4278;SDS011;2153;47.744;10.580;2022-08-04T08:42:39;11.27;;;2.33;;
4278;SDS011;2153;47.744;10.580;2022-08-04T08:45:23;20.67;;;3.00;;
4278;SDS011;2153;47.744;10.580;2022-08-04T08:48:25;12.00;;;2.13;;
4278;SDS011;2153;47.744;10.580;2022-08-04T08:51:16;20.63;;;2.63;;
4278;SDS011;2153;47.744;10.580;2022-08-04T08:54:07;11.07;;;2.50;;
4278;SDS011;2153;47.744;10.580;2022-08-04T08:56:53;10.90;;;2.60;;
4278;SDS011;2153;47.744;10.580;2022-08-04T08:59:32;15.77;;;2.40;;
4278;SDS011;2153;47.744;10.580;2022-08-04T09:02:21;11.90;;;2.50;;
4278;SDS011;2153;47.744;10.580;2022-08-04T09:05:02;13.40;;;2.70;;
4278;SDS011;2153;47.744;10.580;2022-08-04T09:07:52;12.80;;;1.90;;
4278;SDS011;2153;47.744;10.580;2022-08-04T09:10:35;14.07;;;2.67;;
4278;SDS011;2153;47.744;10.580;2022-08-04T09:13:09;11.50;;;2.03;;
4278;SDS011;2153;47.744;10.580;2022-08-04T09:15:44;10.87;;;2.20;;
4278;SDS011;2153;47.744;10.580;2022-08-04T09:18:18;12.93;;;2.30;;
4278;SDS011;2153;47.744;10.580;2022-08-04T09:20:49;14.77;;;2.57;;
4278;SDS011;2153;47.744;10.580;2022-08-04T09:23:23;14.50;;;3.33;;
4278;SDS011;2153;47.744;10.580;2022-08-04T09:26:02;11.87;;;2.50;;
4278;SDS011;2153;47.744;10.580;2022-08-04T09:28:34;12.25;;;2.38;;
4278;SDS011;2153;47.744;10.580;2022-08-04T09:31:10;15.85;;;2.40;;
4278;SDS011;2153;47.744;10.580;2022-08-04T09:33:41;10.77;;;2.38;;
4278;SDS011;2153;47.744;10.580;2022-08-04T09:36:19;16.23;;;3.08;;
4278;SDS011;2153;47.744;10.580;2022-08-04T09:38:58;18.07;;;2.70;;
4278;SDS011;2153;47.744;10.580;2022-08-04T09:41:34;11.80;;;2.27;;
4278;SDS011;2153;47.744;10.580;2022-08-04T09:44:09;11.70;;;2.05;;
4278;SDS011;2153;47.744;10.580;2022-08-04T09:46:44;14.95;;;2.17;;
4278;SDS011;2153;47.744;10.580;2022-08-04T09:49:18;11.85;;;2.55;;
4278;SDS011;2153;47.744;10.580;2022-08-04T09:51:55;18.63;;;2.17;;
4278;SDS011;2153;47.744;10.580;2022-08-04T09:54:32;14.27;;;2.70;;
4278;SDS011;2153;47.744;10.580;2022-08-04T09:57:12;10.40;;;2.42;;
4278;SDS011;2153;47.744;10.580;2022-08-04T09:59:42;10.93;;;2.05;;
4278;SDS011;2153;47.744;10.580;2022-08-04T10:02:16;13.25;;;2.55;;
4278;SDS011;2153;47.744;10.580;2022-08-04T10:04:46;10.93;;;2.00;;
4278;SDS011;2153;47.744;10.580;2022-08-04T10:07:18;10.90;;;2.10;;
4278;SDS011;2153;47.744;10.580;2022-08-04T10:10:09;11.18;;;2.78;;
4278;SDS011;2153;47.744;10.580;2022-08-04T10:12:47;11.55;;;2.72;;
4278;SDS011;2153;47.744;10.580;2022-08-04T10:15:27;11.98;;;2.28;;
4278;SDS011;2153;47.744;10.580;2022-08-04T10:18:01;14.07;;;2.45;;
4278;SDS011;2153;47.744;10.580;2022-08-04T10:20:45;10.10;;;2.35;;
4278;SDS011;2153;47.744;10.580;2022-08-04T10:23:21;10.60;;;2.28;;
4278;SDS011;2153;47.744;10.580;2022-08-04T10:26:01;12.57;;;2.42;;
4278;SDS011;2153;47.744;10.580;2022-08-04T10:28:37;11.85;;;2.55;;
4278;SDS011;2153;47.744;10.580;2022-08-04T10:31:10;10.73;;;2.50;;
4278;SDS011;2153;47.744;10.580;2022-08-04T10:33:48;11.45;;;2.22;;
4278;SDS011;2153;47.744;10.580;2022-08-04T10:36:21;14.38;;;2.20;;
4278;SDS011;2153;47.744;10.580;2022-08-04T10:38:55;11.65;;;2.30;;
4278;SDS011;2153;47.744;10.580;2022-08-04T10:41:26;11.27;;;2.90;;
4278;SDS011;2153;47.744;10.580;2022-08-04T10:44:04;12.85;;;2.78;;
4278;SDS011;2153;47.744;10.580;2022-08-04T10:46:40;13.60;;;2.58;;
4278;SDS011;2153;47.744;10.580;2022-08-04T10:49:13;12.05;;;2.53;;
4278;SDS011;2153;47.744;10.580;2022-08-04T10:51:49;12.88;;;2.40;;
4278;SDS011;2153;47.744;10.580;2022-08-04T10:54:18;9.88;;;2.20;;
4278;SDS011;2153;47.744;10.580;2022-08-04T10:56:51;10.20;;;2.13;;
4278;SDS011;2153;47.744;10.580;2022-08-04T10:59:25;10.15;;;1.77;;
4278;SDS011;2153;47.744;10.580;2022-08-04T11:01:58;9.43;;;1.92;;
4278;SDS011;2153;47.744;10.580;2022-08-04T11:04:40;11.15;;;1.95;;
4278;SDS011;2153;47.744;10.580;2022-08-04T11:07:11;10.07;;;2.08;;
4278;SDS011;2153;47.744;10.580;2022-08-04T11:09:41;11.25;;;2.00;;
4278;SDS011;2153;47.744;10.580;2022-08-04T11:12:11;8.80;;;1.90;;
4278;SDS011;2153;47.744;10.580;2022-08-04T11:14:45;9.55;;;2.17;;
4278;SDS011;2153;47.744;10.580;2022-08-04T11:17:18;10.40;;;2.15;;
4278;SDS011;2153;47.744;10.580;2022-08-04T11:19:48;10.23;;;2.15;;
4278;SDS011;2153;47.744;10.580;2022-08-04T11:22:25;14.88;;;2.58;;
4278;SDS011;2153;47.744;10.580;2022-08-04T11:24:53;8.98;;;1.92;;
4278;SDS011;2153;47.744;10.580;2022-08-04T11:27:27;17.65;;;2.30;;
4278;SDS011;2153;47.744;10.580;2022-08-04T11:30:04;13.95;;;2.20;;
4278;SDS011;2153;47.744;10.580;2022-08-04T11:32:34;12.18;;;2.28;;
4278;SDS011;2153;47.744;10.580;2022-08-04T11:35:08;9.65;;;2.78;;
4278;SDS011;2153;47.744;10.580;2022-08-04T11:37:42;10.30;;;2.95;;
4278;SDS011;2153;47.744;10.580;2022-08-04T11:40:15;8.98;;;1.90;;
4278;SDS011;2153;47.744;10.580;2022-08-04T11:42:51;10.63;;;2.50;;
4278;SDS011;2153;47.744;10.580;2022-08-04T11:45:24;11.75;;;2.47;;
4278;SDS011;2153;47.744;10.580;2022-08-04T11:47:56;9.43;;;2.50;;
4278;SDS011;2153;47.744;10.580;2022-08-04T11:50:28;11.68;;;2.90;;
4278;SDS011;2153;47.744;10.580;2022-08-04T11:52:58;11.82;;;2.92;;
4278;SDS011;2153;47.744;10.580;2022-08-04T11:55:27;9.73;;;2.50;;
4278;SDS011;2153;47.744;10.580;2022-08-04T11:57:55;10.10;;;2.45;;
4278;SDS011;2153;47.744;10.580;2022-08-04T12:00:24;10.48;;;2.38;;
4278;SDS011;2153;47.744;10.580;2022-08-04T12:03:14;10.15;;;2.47;;
4278;SDS011;2153;47.744;10.580;2022-08-04T12:05:51;11.60;;;2.17;;
4278;SDS011;2153;47.744;10.580;2022-08-04T12:08:31;13.45;;;2.40;;
4278;SDS011;2153;47.744;10.580;2022-08-04T12:11:08;10.00;;;2.20;;
4278;SDS011;2153;47.744;10.580;2022-08-04T12:13:42;13.82;;;2.53;;
4278;SDS011;2153;47.744;10.580;2022-08-04T12:16:17;10.75;;;2.30;;
4278;SDS011;2153;47.744;10.580;2022-08-04T12:18:49;15.57;;;2.30;;
4278;SDS011;2153;47.744;10.580;2022-08-04T12:21:22;11.38;;;2.45;;
4278;SDS011;2153;47.744;10.580;2022-08-04T12:23:53;18.40;;;2.55;;
4278;SDS011;2153;47.744;10.580;2022-08-04T12:26:26;10.43;;;2.40;;
4278;SDS011;2153;47.744;10.580;2022-08-04T12:28:58;10.15;;;2.05;;
4278;SDS011;2153;47.744;10.580;2022-08-04T12:31:28;9.52;;;2.10;;
4278;SDS011;2153;47.744;10.580;2022-08-04T12:34:01;9.90;;;2.08;;
4278;SDS011;2153;47.744;10.580;2022-08-04T12:36:34;9.88;;;2.33;;
4278;SDS011;2153;47.744;10.580;2022-08-04T12:39:08;10.55;;;2.50;;
4278;SDS011;2153;47.744;10.580;2022-08-04T12:41:38;9.95;;;2.17;;
4278;SDS011;2153;47.744;10.580;2022-08-04T12:44:09;10.10;;;2.10;;
4278;SDS011;2153;47.744;10.580;2022-08-04T12:46:39;10.27;;;2.00;;
4278;SDS011;2153;47.744;10.580;2022-08-04T12:49:11;9.68;;;1.70;;
4278;SDS011;2153;47.744;10.580;2022-08-04T12:51:41;13.73;;;2.03;;
4278;SDS011;2153;47.744;10.580;2022-08-04T12:54:09;9.23;;;1.80;;
4278;SDS011;2153;47.744;10.580;2022-08-04T12:56:37;12.93;;;1.90;;
4278;SDS011;2153;47.744;10.580;2022-08-04T12:59:06;10.43;;;1.90;;
4278;SDS011;2153;47.744;10.580;2022-08-04T13:01:35;10.13;;;1.38;;
4278;SDS011;2153;47.744;10.580;2022-08-04T13:04:09;8.90;;;1.30;;
4278;SDS011;2153;47.744;10.580;2022-08-04T13:06:38;8.70;;;1.40;;
4278;SDS011;2153;47.744;10.580;2022-08-04T13:09:08;9.10;;;1.70;;
4278;SDS011;2153;47.744;10.580;2022-08-04T13:11:39;11.90;;;2.20;;
4278;SDS011;2153;47.744;10.580;2022-08-04T13:14:08;10.27;;;1.60;;
4278;SDS011;2153;47.744;10.580;2022-08-04T13:16:37;9.40;;;1.70;;
4278;SDS011;2153;47.744;10.580;2022-08-04T13:19:06;14.48;;;1.52;;
4278;SDS011;2153;47.744;10.580;2022-08-04T13:21:34;10.15;;;1.38;;
4278;SDS011;2153;47.744;10.580;2022-08-04T13:24:09;9.10;;;1.30;;
4278;SDS011;2153;47.744;10.580;2022-08-04T13:26:44;9.20;;;1.40;;
4278;SDS011;2153;47.744;10.580;2022-08-04T13:29:13;12.10;;;1.77;;
4278;SDS011;2153;47.744;10.580;2022-08-04T13:31:42;8.80;;;1.40;;
4278;SDS011;2153;47.744;10.580;2022-08-04T13:34:12;10.15;;;1.50;;
4278;SDS011;2153;47.744;10.580;2022-08-04T13:36:41;8.82;;;1.50;;
4278;SDS011;2153;47.744;10.580;2022-08-04T13:39:12;12.10;;;1.92;;
4278;SDS011;2153;47.744;10.580;2022-08-04T13:41:42;13.13;;;1.40;;
4278;SDS011;2153;47.744;10.580;2022-08-04T13:44:11;8.60;;;1.40;;
4278;SDS011;2153;47.744;10.580;2022-08-04T13:46:43;9.88;;;1.67;;
4278;SDS011;2153;47.744;10.580;2022-08-04T13:49:15;8.65;;;1.33;;
4278;SDS011;2153;47.744;10.580;2022-08-04T13:51:45;11.23;;;1.48;;
4278;SDS011;2153;47.744;10.580;2022-08-04T13:54:14;9.00;;;1.60;;
4278;SDS011;2153;47.744;10.580;2022-08-04T13:56:43;9.65;;;1.60;;
4278;SDS011;2153;47.744;10.580;2022-08-04T13:59:13;9.38;;;1.83;;
4278;SDS011;2153;47.744;10.580;2022-08-04T14:01:43;9.93;;;1.35;;
4278;SDS011;2153;47.744;10.580;2022-08-04T14:04:14;9.93;;;1.60;;
4278;SDS011;2153;47.744;10.580;2022-08-04T14:06:48;13.35;;;1.60;;
4278;SDS011;2153;47.744;10.580;2022-08-04T14:09:17;9.10;;;1.45;;
4278;SDS011;2153;47.744;10.580;2022-08-04T14:11:45;11.23;;;1.58;;
4278;SDS011;2153;47.744;10.580;2022-08-04T14:14:14;14.10;;;1.80;;
4278;SDS011;2153;47.744;10.580;2022-08-04T14:19:48;9.52;;;1.83;;
4278;SDS011;2153;47.744;10.580;2022-08-04T14:22:29;12.25;;;2.25;;
4278;SDS011;2153;47.744;10.580;2022-08-04T14:25:00;10.20;;;1.30;;
4278;SDS011;2153;47.744;10.580;2022-08-04T14:27:29;12.38;;;1.48;;
4278;SDS011;2153;47.744;10.580;2022-08-04T14:30:05;9.00;;;1.67;;
4278;SDS011;2153;47.744;10.580;2022-08-04T14:32:32;19.17;;;1.70;;
4278;SDS011;2153;47.744;10.580;2022-08-04T14:35:10;10.10;;;1.60;;
4278;SDS011;2153;47.744;10.580;2022-08-04T14:37:37;9.13;;;1.50;;
4278;SDS011;2153;47.744;10.580;2022-08-04T14:40:04;11.38;;;1.60;;
4278;SDS011;2153;47.744;10.580;2022-08-04T14:42:41;17.92;;;1.40;;
4278;SDS011;2153;47.744;10.580;2022-08-04T14:45:09;10.13;;;1.98;;
4278;SDS011;2153;47.744;10.580;2022-08-04T14:47:40;9.40;;;1.60;;
4278;SDS011;2153;47.744;10.580;2022-08-04T14:50:08;11.98;;;1.70;;
4278;SDS011;2153;47.744;10.580;2022-08-04T14:52:37;10.27;;;1.63;;
4278;SDS011;2153;47.744;10.580;2022-08-04T14:55:14;9.55;;;1.70;;
4278;SDS011;2153;47.744;10.580;2022-08-04T14:57:43;9.15;;;1.48;;
4278;SDS011;2153;47.744;10.580;2022-08-04T15:00:10;10.43;;;1.73;;
4278;SDS011;2153;47.744;10.580;2022-08-04T15:02:37;9.40;;;1.65;;
4278;SDS011;2153;47.744;10.580;2022-08-04T15:05:07;10.38;;;1.70;;
4278;SDS011;2153;47.744;10.580;2022-08-04T15:07:35;14.95;;;1.85;;
4278;SDS011;2153;47.744;10.580;2022-08-04T15:10:02;12.07;;;1.60;;
4278;SDS011;2153;47.744;10.580;2022-08-04T15:12:29;9.48;;;1.60;;
4278;SDS011;2153;47.744;10.580;2022-08-04T15:14:56;9.20;;;1.30;;
4278;SDS011;2153;47.744;10.580;2022-08-04T15:17:23;10.13;;;1.80;;
4278;SDS011;2153;47.744;10.580;2022-08-04T15:19:50;10.35;;;1.50;;
4278;SDS011;2153;47.744;10.580;2022-08-04T15:22:18;10.35;;;1.75;;
4278;SDS011;2153;47.744;10.580;2022-08-04T15:24:45;10.70;;;2.03;;
4278;SDS011;2153;47.744;10.580;2022-08-04T15:27:11;9.07;;;1.50;;
4278;SDS011;2153;47.744;10.580;2022-08-04T15:29:40;9.30;;;1.40;;
4278;SDS011;2153;47.744;10.580;2022-08-04T15:32:12;12.20;;;1.48;;
4278;SDS011;2153;47.744;10.580;2022-08-04T15:34:44;10.05;;;1.65;;
4278;SDS011;2153;47.744;10.580;2022-08-04T15:37:12;10.15;;;1.65;;
4278;SDS011;2153;47.744;10.580;2022-08-04T15:39:46;10.85;;;1.55;;
4278;SDS011;2153;47.744;10.580;2022-08-04T15:42:20;10.52;;;1.70;;
4278;SDS011;2153;47.744;10.580;2022-08-04T15:45:16;9.65;;;1.70;;
4278;SDS011;2153;47.744;10.580;2022-08-04T15:50:59;9.63;;;1.52;;